sensor_id;sensor_type;location;lat;lon;timestamp;temperature;humidity
23703;DHT22;12030;50.376;8.762;2024-03-07T00:02:11;4.20;99.90
23703;DHT22;12030;50.376;8.762;2024-03-07T00:04:36;4.20;99.90
23703;DHT22;12030;50.376;8.762;2024-03-07T00:07:05;4.30;99.90
23703;DHT22;12030;50.376;8.762;2024-03-07T00:09:32;4.20;99.90
23703;DHT22;12030;50.376;8.762;2024-03-07T00:11:59;4.20;99.90
23703;DHT22;12030;50.376;8.762;2024-03-07T00:14:24;4.10;99.90
23703;DHT22;12030;50.376;8.762;2024-03-07T00:16:54;4.10;99.90
23703;DHT22;12030;50.376;8.762;2024-03-07T00:19:19;4.00;99.90
23703;DHT22;12030;50.376;8.762;2024-03-07T00:21:45;4.00;99.90
23703;DHT22;12030;50.376;8.762;2024-03-07T00:24:10;4.00;99.90
23703;DHT22;12030;50.376;8.762;2024-03-07T00:26:36;3.90;99.90
23703;DHT22;12030;50.376;8.762;2024-03-07T00:29:01;3.80;99.90
23703;DHT22;12030;50.376;8.762;2024-03-07T00:31:27;3.70;99.90
23703;DHT22;12030;50.376;8.762;2024-03-07T00:33:55;3.70;99.90
23703;DHT22;12030;50.376;8.762;2024-03-07T00:36:21;3.80;99.90
23703;DHT22;12030;50.376;8.762;2024-03-07T00:38:47;3.60;99.90
23703;DHT22;12030;50.376;8.762;2024-03-07T00:41:12;3.50;99.90
23703;DHT22;12030;50.376;8.762;2024-03-07T00:43:38;3.40;99.90
23703;DHT22;12030;50.376;8.762;2024-03-07T00:46:03;3.40;99.90
23703;DHT22;12030;50.376;8.762;2024-03-07T00:48:32;3.40;99.90
23703;DHT22;12030;50.376;8.762;2024-03-07T00:50:57;3.40;99.90
23703;DHT22;12030;50.376;8.762;2024-03-07T00:53:23;3.20;99.90
23703;DHT22;12030;50.376;8.762;2024-03-07T00:55:48;3.10;99.90
23703;DHT22;12030;50.376;8.762;2024-03-07T00:58:14;3.10;99.90
23703;DHT22;12030;50.376;8.762;2024-03-07T01:00:40;3.10;99.90
23703;DHT22;12030;50.376;8.762;2024-03-07T01:03:09;3.10;99.90
23703;DHT22;12030;50.376;8.762;2024-03-07T01:05:36;3.00;99.90
23703;DHT22;12030;50.376;8.762;2024-03-07T01:08:02;2.90;99.90
23703;DHT22;12030;50.376;8.762;2024-03-07T01:10:28;2.80;99.90
23703;DHT22;12030;50.376;8.762;2024-03-07T01:12:54;2.70;99.90
23703;DHT22;12030;50.376;8.762;2024-03-07T01:15:23;2.70;99.90
23703;DHT22;12030;50.376;8.762;2024-03-07T01:17:48;2.70;99.90
23703;DHT22;12030;50.376;8.762;2024-03-07T01:20:14;2.70;99.90
23703;DHT22;12030;50.376;8.762;2024-03-07T01:22:40;2.80;99.90
23703;DHT22;12030;50.376;8.762;2024-03-07T01:25:06;2.70;99.90
23703;DHT22;12030;50.376;8.762;2024-03-07T01:27:32;2.70;99.90
23703;DHT22;12030;50.376;8.762;2024-03-07T01:29:57;2.60;99.90
23703;DHT22;12030;50.376;8.762;2024-03-07T01:32:23;2.60;99.90
23703;DHT22;12030;50.376;8.762;2024-03-07T01:34:49;2.50;99.90
23703;DHT22;12030;50.376;8.762;2024-03-07T01:37:14;2.40;99.90
23703;DHT22;12030;50.376;8.762;2024-03-07T01:39:40;2.40;99.90
23703;DHT22;12030;50.376;8.762;2024-03-07T01:42:05;2.40;99.90
23703;DHT22;12030;50.376;8.762;2024-03-07T01:44:33;2.20;99.90
23703;DHT22;12030;50.376;8.762;2024-03-07T01:46:59;2.10;99.90
23703;DHT22;12030;50.376;8.762;2024-03-07T01:49:30;2.10;99.90
23703;DHT22;12030;50.376;8.762;2024-03-07T01:51:56;2.10;99.90
23703;DHT22;12030;50.376;8.762;2024-03-07T01:54:22;2.10;99.90
23703;DHT22;12030;50.376;8.762;2024-03-07T01:56:48;1.90;99.90
23703;DHT22;12030;50.376;8.762;2024-03-07T01:59:15;2.00;99.90
23703;DHT22;12030;50.376;8.762;2024-03-07T02:01:41;2.00;99.90
23703;DHT22;12030;50.376;8.762;2024-03-07T02:04:08;2.10;99.90
23703;DHT22;12030;50.376;8.762;2024-03-07T02:06:34;2.10;99.90
23703;DHT22;12030;50.376;8.762;2024-03-07T02:09:00;2.10;99.90
23703;DHT22;12030;50.376;8.762;2024-03-07T02:11:27;2.00;99.90
23703;DHT22;12030;50.376;8.762;2024-03-07T02:13:53;2.00;99.90
23703;DHT22;12030;50.376;8.762;2024-03-07T02:16:18;2.00;99.90
23703;DHT22;12030;50.376;8.762;2024-03-07T02:18:45;2.00;99.90
23703;DHT22;12030;50.376;8.762;2024-03-07T02:21:11;2.10;99.90
23703;DHT22;12030;50.376;8.762;2024-03-07T02:23:37;2.20;99.90
23703;DHT22;12030;50.376;8.762;2024-03-07T02:26:03;2.20;99.90
23703;DHT22;12030;50.376;8.762;2024-03-07T02:28:29;2.10;99.90
23703;DHT22;12030;50.376;8.762;2024-03-07T02:30:55;2.10;99.90
23703;DHT22;12030;50.376;8.762;2024-03-07T02:33:20;2.10;99.90
23703;DHT22;12030;50.376;8.762;2024-03-07T02:35:46;2.10;99.90
23703;DHT22;12030;50.376;8.762;2024-03-07T02:38:12;2.00;99.90
23703;DHT22;12030;50.376;8.762;2024-03-07T02:40:37;2.10;99.90
23703;DHT22;12030;50.376;8.762;2024-03-07T02:43:03;2.10;99.90
23703;DHT22;12030;50.376;8.762;2024-03-07T02:45:30;2.00;99.90
23703;DHT22;12030;50.376;8.762;2024-03-07T02:47:56;1.90;99.90
23703;DHT22;12030;50.376;8.762;2024-03-07T02:50:22;1.80;99.90
23703;DHT22;12030;50.376;8.762;2024-03-07T02:52:48;1.80;99.90
23703;DHT22;12030;50.376;8.762;2024-03-07T02:55:15;1.80;99.90
23703;DHT22;12030;50.376;8.762;2024-03-07T02:57:41;1.80;99.90
23703;DHT22;12030;50.376;8.762;2024-03-07T03:00:07;1.80;99.90
23703;DHT22;12030;50.376;8.762;2024-03-07T03:02:45;1.70;99.90
23703;DHT22;12030;50.376;8.762;2024-03-07T03:05:12;1.70;99.90
23703;DHT22;12030;50.376;8.762;2024-03-07T03:07:39;1.80;99.90
23703;DHT22;12030;50.376;8.762;2024-03-07T03:10:05;1.80;99.90
23703;DHT22;12030;50.376;8.762;2024-03-07T03:12:37;1.80;99.90
23703;DHT22;12030;50.376;8.762;2024-03-07T03:15:04;1.90;99.90
23703;DHT22;12030;50.376;8.762;2024-03-07T03:17:30;2.00;99.90
23703;DHT22;12030;50.376;8.762;2024-03-07T03:19:56;2.00;99.90
23703;DHT22;12030;50.376;8.762;2024-03-07T03:22:22;2.00;99.90
23703;DHT22;12030;50.376;8.762;2024-03-07T03:24:47;2.00;99.90
23703;DHT22;12030;50.376;8.762;2024-03-07T03:27:13;1.90;99.90
23703;DHT22;12030;50.376;8.762;2024-03-07T03:29:39;2.00;99.90
23703;DHT22;12030;50.376;8.762;2024-03-07T03:32:06;2.10;99.90
23703;DHT22;12030;50.376;8.762;2024-03-07T03:34:33;2.10;99.90
23703;DHT22;12030;50.376;8.762;2024-03-07T03:36:59;2.10;99.90
23703;DHT22;12030;50.376;8.762;2024-03-07T03:39:24;2.10;99.90
23703;DHT22;12030;50.376;8.762;2024-03-07T03:41:52;2.20;99.90
23703;DHT22;12030;50.376;8.762;2024-03-07T03:44:17;2.20;99.90
23703;DHT22;12030;50.376;8.762;2024-03-07T03:46:43;2.10;99.90
23703;DHT22;12030;50.376;8.762;2024-03-07T03:49:09;2.00;99.90
23703;DHT22;12030;50.376;8.762;2024-03-07T03:51:35;2.00;99.90
23703;DHT22;12030;50.376;8.762;2024-03-07T03:54:01;1.90;99.90
23703;DHT22;12030;50.376;8.762;2024-03-07T03:56:27;1.80;99.90
23703;DHT22;12030;50.376;8.762;2024-03-07T03:58:53;1.80;99.90
23703;DHT22;12030;50.376;8.762;2024-03-07T04:01:18;1.80;99.90
23703;DHT22;12030;50.376;8.762;2024-03-07T04:03:44;1.90;99.90
23703;DHT22;12030;50.376;8.762;2024-03-07T04:06:12;1.90;99.90
23703;DHT22;12030;50.376;8.762;2024-03-07T04:08:38;1.80;99.90
23703;DHT22;12030;50.376;8.762;2024-03-07T04:11:04;1.90;99.90
23703;DHT22;12030;50.376;8.762;2024-03-07T04:13:29;1.90;99.90
23703;DHT22;12030;50.376;8.762;2024-03-07T04:15:56;1.90;99.90
23703;DHT22;12030;50.376;8.762;2024-03-07T04:18:21;1.90;99.90
23703;DHT22;12030;50.376;8.762;2024-03-07T04:20:47;1.90;99.90
23703;DHT22;12030;50.376;8.762;2024-03-07T04:23:12;1.90;99.90
23703;DHT22;12030;50.376;8.762;2024-03-07T04:25:38;2.00;99.90
23703;DHT22;12030;50.376;8.762;2024-03-07T04:28:03;2.00;99.90
23703;DHT22;12030;50.376;8.762;2024-03-07T04:30:30;2.20;99.90
23703;DHT22;12030;50.376;8.762;2024-03-07T04:32:56;2.10;99.90
23703;DHT22;12030;50.376;8.762;2024-03-07T04:35:23;2.20;99.90
23703;DHT22;12030;50.376;8.762;2024-03-07T04:37:49;2.30;99.90
23703;DHT22;12030;50.376;8.762;2024-03-07T04:40:16;2.20;99.90
23703;DHT22;12030;50.376;8.762;2024-03-07T04:42:45;2.30;99.90
23703;DHT22;12030;50.376;8.762;2024-03-07T04:45:12;2.30;99.90
23703;DHT22;12030;50.376;8.762;2024-03-07T04:47:44;2.30;99.90
23703;DHT22;12030;50.376;8.762;2024-03-07T04:50:10;2.30;99.90
23703;DHT22;12030;50.376;8.762;2024-03-07T04:52:39;2.40;99.90
23703;DHT22;12030;50.376;8.762;2024-03-07T04:55:09;2.50;99.90
23703;DHT22;12030;50.376;8.762;2024-03-07T04:57:36;2.50;99.90
23703;DHT22;12030;50.376;8.762;2024-03-07T05:00:05;2.60;99.90
23703;DHT22;12030;50.376;8.762;2024-03-07T05:02:30;2.60;99.90
23703;DHT22;12030;50.376;8.762;2024-03-07T05:04:56;2.60;99.90
23703;DHT22;12030;50.376;8.762;2024-03-07T05:07:21;2.60;99.90
23703;DHT22;12030;50.376;8.762;2024-03-07T05:09:47;2.70;99.90
23703;DHT22;12030;50.376;8.762;2024-03-07T05:12:14;2.70;99.90
23703;DHT22;12030;50.376;8.762;2024-03-07T05:14:39;2.70;99.90
23703;DHT22;12030;50.376;8.762;2024-03-07T05:17:05;2.60;99.90
23703;DHT22;12030;50.376;8.762;2024-03-07T05:19:34;2.50;99.90
23703;DHT22;12030;50.376;8.762;2024-03-07T05:22:00;2.30;99.90
23703;DHT22;12030;50.376;8.762;2024-03-07T05:24:26;2.10;99.90
23703;DHT22;12030;50.376;8.762;2024-03-07T05:26:51;2.10;99.90
23703;DHT22;12030;50.376;8.762;2024-03-07T05:29:18;2.00;99.90
23703;DHT22;12030;50.376;8.762;2024-03-07T05:31:44;2.10;99.90
23703;DHT22;12030;50.376;8.762;2024-03-07T05:34:13;1.90;99.90
23703;DHT22;12030;50.376;8.762;2024-03-07T05:36:40;1.80;99.90
23703;DHT22;12030;50.376;8.762;2024-03-07T05:39:15;1.90;99.90
23703;DHT22;12030;50.376;8.762;2024-03-07T05:41:42;1.90;99.90
23703;DHT22;12030;50.376;8.762;2024-03-07T05:44:08;1.90;99.90
23703;DHT22;12030;50.376;8.762;2024-03-07T05:46:37;2.00;99.90
23703;DHT22;12030;50.376;8.762;2024-03-07T05:49:07;2.00;99.90
23703;DHT22;12030;50.376;8.762;2024-03-07T05:51:33;2.10;99.90
23703;DHT22;12030;50.376;8.762;2024-03-07T05:53:59;2.20;99.90
23703;DHT22;12030;50.376;8.762;2024-03-07T05:56:24;2.20;99.90
23703;DHT22;12030;50.376;8.762;2024-03-07T05:58:50;2.30;99.90
23703;DHT22;12030;50.376;8.762;2024-03-07T06:01:17;2.30;99.90
23703;DHT22;12030;50.376;8.762;2024-03-07T06:03:43;2.30;99.90
23703;DHT22;12030;50.376;8.762;2024-03-07T06:06:09;2.40;99.90
23703;DHT22;12030;50.376;8.762;2024-03-07T06:08:37;2.40;99.90
23703;DHT22;12030;50.376;8.762;2024-03-07T06:11:03;2.50;99.90
23703;DHT22;12030;50.376;8.762;2024-03-07T06:13:29;2.60;99.90
23703;DHT22;12030;50.376;8.762;2024-03-07T06:15:54;2.60;99.90
23703;DHT22;12030;50.376;8.762;2024-03-07T06:18:20;2.70;99.90
23703;DHT22;12030;50.376;8.762;2024-03-07T06:20:45;2.70;99.90
23703;DHT22;12030;50.376;8.762;2024-03-07T06:23:11;2.80;99.90
23703;DHT22;12030;50.376;8.762;2024-03-07T06:25:42;2.90;99.90
23703;DHT22;12030;50.376;8.762;2024-03-07T06:28:17;2.90;99.90
23703;DHT22;12030;50.376;8.762;2024-03-07T06:30:44;3.00;99.90
23703;DHT22;12030;50.376;8.762;2024-03-07T06:33:10;3.10;99.90
23703;DHT22;12030;50.376;8.762;2024-03-07T06:35:37;3.20;99.90
23703;DHT22;12030;50.376;8.762;2024-03-07T06:38:08;3.20;99.90
23703;DHT22;12030;50.376;8.762;2024-03-07T06:40:43;3.20;99.90
23703;DHT22;12030;50.376;8.762;2024-03-07T06:43:09;3.20;99.90
23703;DHT22;12030;50.376;8.762;2024-03-07T06:45:39;3.30;99.90
23703;DHT22;12030;50.376;8.762;2024-03-07T06:48:08;3.30;99.90
23703;DHT22;12030;50.376;8.762;2024-03-07T06:50:35;3.40;99.90
23703;DHT22;12030;50.376;8.762;2024-03-07T06:53:02;3.50;99.90
23703;DHT22;12030;50.376;8.762;2024-03-07T06:55:27;3.50;99.90
23703;DHT22;12030;50.376;8.762;2024-03-07T06:57:53;3.70;99.90
23703;DHT22;12030;50.376;8.762;2024-03-07T07:00:20;3.70;99.90
23703;DHT22;12030;50.376;8.762;2024-03-07T07:02:46;3.80;99.90
23703;DHT22;12030;50.376;8.762;2024-03-07T07:05:12;3.80;99.90
23703;DHT22;12030;50.376;8.762;2024-03-07T07:07:41;3.90;99.90
23703;DHT22;12030;50.376;8.762;2024-03-07T07:10:08;3.90;99.90
23703;DHT22;12030;50.376;8.762;2024-03-07T07:12:37;4.10;99.90
23703;DHT22;12030;50.376;8.762;2024-03-07T07:15:03;4.20;99.90
23703;DHT22;12030;50.376;8.762;2024-03-07T07:17:29;4.30;99.90
23703;DHT22;12030;50.376;8.762;2024-03-07T07:19:57;4.40;99.90
23703;DHT22;12030;50.376;8.762;2024-03-07T07:22:22;4.40;99.90
23703;DHT22;12030;50.376;8.762;2024-03-07T07:24:48;4.40;99.90
23703;DHT22;12030;50.376;8.762;2024-03-07T07:27:15;4.50;99.90
23703;DHT22;12030;50.376;8.762;2024-03-07T07:29:40;4.50;99.90
23703;DHT22;12030;50.376;8.762;2024-03-07T07:32:07;4.50;99.90
23703;DHT22;12030;50.376;8.762;2024-03-07T07:34:33;4.60;99.90
23703;DHT22;12030;50.376;8.762;2024-03-07T07:36:58;4.70;99.90
23703;DHT22;12030;50.376;8.762;2024-03-07T07:39:24;4.60;99.90
23703;DHT22;12030;50.376;8.762;2024-03-07T07:41:49;4.60;99.90
23703;DHT22;12030;50.376;8.762;2024-03-07T07:44:15;4.70;99.90
23703;DHT22;12030;50.376;8.762;2024-03-07T07:46:41;4.80;99.90
23703;DHT22;12030;50.376;8.762;2024-03-07T07:49:06;5.00;99.90
23703;DHT22;12030;50.376;8.762;2024-03-07T07:51:32;5.00;99.90
23703;DHT22;12030;50.376;8.762;2024-03-07T07:53:58;5.10;99.90
23703;DHT22;12030;50.376;8.762;2024-03-07T07:56:24;5.20;99.90
23703;DHT22;12030;50.376;8.762;2024-03-07T07:58:50;5.20;99.90
23703;DHT22;12030;50.376;8.762;2024-03-07T08:01:17;5.30;99.90
23703;DHT22;12030;50.376;8.762;2024-03-07T08:03:45;5.40;99.90
23703;DHT22;12030;50.376;8.762;2024-03-07T08:06:10;5.60;99.90
23703;DHT22;12030;50.376;8.762;2024-03-07T08:08:36;5.60;99.90
23703;DHT22;12030;50.376;8.762;2024-03-07T08:11:02;5.60;99.90
23703;DHT22;12030;50.376;8.762;2024-03-07T08:13:27;5.70;99.90
23703;DHT22;12030;50.376;8.762;2024-03-07T08:15:53;5.80;99.90
23703;DHT22;12030;50.376;8.762;2024-03-07T08:18:19;5.80;99.90
23703;DHT22;12030;50.376;8.762;2024-03-07T08:20:45;5.90;99.90
23703;DHT22;12030;50.376;8.762;2024-03-07T08:23:11;6.00;99.90
23703;DHT22;12030;50.376;8.762;2024-03-07T08:25:38;6.00;99.90
23703;DHT22;12030;50.376;8.762;2024-03-07T08:28:07;5.90;99.90
23703;DHT22;12030;50.376;8.762;2024-03-07T08:30:33;5.80;99.90
23703;DHT22;12030;50.376;8.762;2024-03-07T08:33:00;5.90;99.90
23703;DHT22;12030;50.376;8.762;2024-03-07T08:35:28;5.80;99.90
23703;DHT22;12030;50.376;8.762;2024-03-07T08:37:55;5.90;99.90
23703;DHT22;12030;50.376;8.762;2024-03-07T08:40:22;5.90;99.90
23703;DHT22;12030;50.376;8.762;2024-03-07T08:42:50;5.90;99.90
23703;DHT22;12030;50.376;8.762;2024-03-07T08:45:16;6.00;99.90
23703;DHT22;12030;50.376;8.762;2024-03-07T08:47:46;6.00;99.90
23703;DHT22;12030;50.376;8.762;2024-03-07T08:50:13;6.10;99.90
23703;DHT22;12030;50.376;8.762;2024-03-07T08:52:39;6.20;99.90
23703;DHT22;12030;50.376;8.762;2024-03-07T08:55:06;6.20;99.90
23703;DHT22;12030;50.376;8.762;2024-03-07T08:57:35;6.20;99.90
23703;DHT22;12030;50.376;8.762;2024-03-07T09:00:02;6.30;99.90
23703;DHT22;12030;50.376;8.762;2024-03-07T09:02:34;6.30;99.90
23703;DHT22;12030;50.376;8.762;2024-03-07T09:05:00;6.40;99.90
23703;DHT22;12030;50.376;8.762;2024-03-07T09:07:26;6.40;99.90
23703;DHT22;12030;50.376;8.762;2024-03-07T09:09:51;6.30;99.90
23703;DHT22;12030;50.376;8.762;2024-03-07T09:12:17;6.30;99.90
23703;DHT22;12030;50.376;8.762;2024-03-07T09:14:45;6.40;99.90
23703;DHT22;12030;50.376;8.762;2024-03-07T09:17:11;6.50;99.90
23703;DHT22;12030;50.376;8.762;2024-03-07T09:19:37;6.50;99.90
23703;DHT22;12030;50.376;8.762;2024-03-07T09:22:03;6.60;99.90
23703;DHT22;12030;50.376;8.762;2024-03-07T09:24:30;6.70;99.90
23703;DHT22;12030;50.376;8.762;2024-03-07T09:26:56;6.70;99.90
23703;DHT22;12030;50.376;8.762;2024-03-07T09:29:23;6.60;99.90
23703;DHT22;12030;50.376;8.762;2024-03-07T09:31:52;6.70;99.90
23703;DHT22;12030;50.376;8.762;2024-03-07T09:34:19;6.90;99.90
23703;DHT22;12030;50.376;8.762;2024-03-07T09:36:46;6.80;99.90
23703;DHT22;12030;50.376;8.762;2024-03-07T09:39:12;6.90;99.90
23703;DHT22;12030;50.376;8.762;2024-03-07T09:41:41;7.00;99.90
23703;DHT22;12030;50.376;8.762;2024-03-07T09:44:09;7.00;99.90
23703;DHT22;12030;50.376;8.762;2024-03-07T09:46:37;7.10;99.90
23703;DHT22;12030;50.376;8.762;2024-03-07T09:49:03;7.20;99.90
23703;DHT22;12030;50.376;8.762;2024-03-07T09:51:31;7.00;99.90
23703;DHT22;12030;50.376;8.762;2024-03-07T09:53:58;7.10;99.90
23703;DHT22;12030;50.376;8.762;2024-03-07T09:56:25;7.20;99.90
23703;DHT22;12030;50.376;8.762;2024-03-07T09:58:53;7.40;99.90
23703;DHT22;12030;50.376;8.762;2024-03-07T10:01:21;7.60;99.90
23703;DHT22;12030;50.376;8.762;2024-03-07T10:03:47;7.70;99.90
23703;DHT22;12030;50.376;8.762;2024-03-07T10:06:14;7.80;99.90
23703;DHT22;12030;50.376;8.762;2024-03-07T10:08:43;8.00;99.90
23703;DHT22;12030;50.376;8.762;2024-03-07T10:11:09;8.00;99.90
23703;DHT22;12030;50.376;8.762;2024-03-07T10:13:35;8.10;99.90
23703;DHT22;12030;50.376;8.762;2024-03-07T10:16:01;8.10;99.90
23703;DHT22;12030;50.376;8.762;2024-03-07T10:18:26;8.20;99.90
23703;DHT22;12030;50.376;8.762;2024-03-07T10:20:55;8.30;99.90
23703;DHT22;12030;50.376;8.762;2024-03-07T10:23:22;8.20;99.90
23703;DHT22;12030;50.376;8.762;2024-03-07T10:25:48;8.40;99.90
23703;DHT22;12030;50.376;8.762;2024-03-07T10:28:15;8.40;99.90
23703;DHT22;12030;50.376;8.762;2024-03-07T10:30:42;8.50;99.90
23703;DHT22;12030;50.376;8.762;2024-03-07T10:33:09;8.80;99.90
23703;DHT22;12030;50.376;8.762;2024-03-07T10:35:37;8.70;99.90
23703;DHT22;12030;50.376;8.762;2024-03-07T10:38:02;8.70;99.90
23703;DHT22;12030;50.376;8.762;2024-03-07T10:40:32;8.90;99.90
23703;DHT22;12030;50.376;8.762;2024-03-07T10:42:58;9.00;99.90
23703;DHT22;12030;50.376;8.762;2024-03-07T10:45:29;9.10;99.90
23703;DHT22;12030;50.376;8.762;2024-03-07T10:47:58;9.00;99.90
23703;DHT22;12030;50.376;8.762;2024-03-07T10:50:33;9.20;99.90
23703;DHT22;12030;50.376;8.762;2024-03-07T10:53:10;9.10;99.90
23703;DHT22;12030;50.376;8.762;2024-03-07T10:58:56;9.10;99.90
23703;DHT22;12030;50.376;8.762;2024-03-07T11:01:23;9.10;99.90
23703;DHT22;12030;50.376;8.762;2024-03-07T11:03:51;9.30;99.90
23703;DHT22;12030;50.376;8.762;2024-03-07T11:06:18;9.30;99.90
23703;DHT22;12030;50.376;8.762;2024-03-07T11:08:44;9.40;99.90
23703;DHT22;12030;50.376;8.762;2024-03-07T11:11:11;9.40;99.90
23703;DHT22;12030;50.376;8.762;2024-03-07T11:13:38;9.30;99.90
23703;DHT22;12030;50.376;8.762;2024-03-07T11:16:05;9.60;99.90
23703;DHT22;12030;50.376;8.762;2024-03-07T11:18:32;9.50;99.90
23703;DHT22;12030;50.376;8.762;2024-03-07T11:20:57;9.60;99.90
23703;DHT22;12030;50.376;8.762;2024-03-07T11:23:32;9.70;99.90
23703;DHT22;12030;50.376;8.762;2024-03-07T11:26:07;9.90;99.90
23703;DHT22;12030;50.376;8.762;2024-03-07T11:28:38;10.00;99.90
23703;DHT22;12030;50.376;8.762;2024-03-07T11:31:14;10.00;99.90
23703;DHT22;12030;50.376;8.762;2024-03-07T11:33:41;10.20;99.90
23703;DHT22;12030;50.376;8.762;2024-03-07T11:36:08;10.30;99.90
23703;DHT22;12030;50.376;8.762;2024-03-07T11:38:34;10.20;99.90
23703;DHT22;12030;50.376;8.762;2024-03-07T11:41:00;10.30;99.90
23703;DHT22;12030;50.376;8.762;2024-03-07T11:43:32;10.40;99.90
23703;DHT22;12030;50.376;8.762;2024-03-07T11:45:59;10.30;99.90
23703;DHT22;12030;50.376;8.762;2024-03-07T11:48:24;10.50;99.90
23703;DHT22;12030;50.376;8.762;2024-03-07T11:50:50;10.40;99.90
23703;DHT22;12030;50.376;8.762;2024-03-07T11:53:16;10.50;99.90
23703;DHT22;12030;50.376;8.762;2024-03-07T11:55:43;10.60;99.90
23703;DHT22;12030;50.376;8.762;2024-03-07T11:58:20;10.70;99.90
23703;DHT22;12030;50.376;8.762;2024-03-07T12:00:47;10.60;99.90
23703;DHT22;12030;50.376;8.762;2024-03-07T12:03:17;10.70;99.90
23703;DHT22;12030;50.376;8.762;2024-03-07T12:05:44;10.80;99.90
23703;DHT22;12030;50.376;8.762;2024-03-07T12:08:11;10.70;99.90
23703;DHT22;12030;50.376;8.762;2024-03-07T12:10:37;10.60;99.90
23703;DHT22;12030;50.376;8.762;2024-03-07T12:13:05;10.60;99.90
23703;DHT22;12030;50.376;8.762;2024-03-07T12:15:30;10.80;99.90
23703;DHT22;12030;50.376;8.762;2024-03-07T12:17:57;10.90;99.90
23703;DHT22;12030;50.376;8.762;2024-03-07T12:20:23;11.00;99.90
23703;DHT22;12030;50.376;8.762;2024-03-07T12:22:59;11.00;99.90
23703;DHT22;12030;50.376;8.762;2024-03-07T12:25:28;10.90;99.90
23703;DHT22;12030;50.376;8.762;2024-03-07T12:28:08;10.90;99.90
23703;DHT22;12030;50.376;8.762;2024-03-07T12:30:57;10.90;99.90
23703;DHT22;12030;50.376;8.762;2024-03-07T12:33:23;10.30;99.90
23703;DHT22;12030;50.376;8.762;2024-03-07T12:35:53;10.50;99.90
23703;DHT22;12030;50.376;8.762;2024-03-07T12:38:25;10.60;99.90
23703;DHT22;12030;50.376;8.762;2024-03-07T12:41:07;10.50;99.90
23703;DHT22;12030;50.376;8.762;2024-03-07T12:43:39;10.40;99.90
23703;DHT22;12030;50.376;8.762;2024-03-07T12:46:07;10.20;99.90
23703;DHT22;12030;50.376;8.762;2024-03-07T12:48:37;10.20;99.90
23703;DHT22;12030;50.376;8.762;2024-03-07T12:51:04;10.10;99.90
23703;DHT22;12030;50.376;8.762;2024-03-07T12:53:29;10.20;99.90
23703;DHT22;12030;50.376;8.762;2024-03-07T12:55:57;10.30;99.90
23703;DHT22;12030;50.376;8.762;2024-03-07T12:58:22;10.30;99.90
23703;DHT22;12030;50.376;8.762;2024-03-07T13:00:51;10.20;99.90
23703;DHT22;12030;50.376;8.762;2024-03-07T13:03:17;10.20;99.90
23703;DHT22;12030;50.376;8.762;2024-03-07T13:05:42;10.10;99.90
23703;DHT22;12030;50.376;8.762;2024-03-07T13:08:09;10.00;99.90
23703;DHT22;12030;50.376;8.762;2024-03-07T13:10:44;10.10;99.90
23703;DHT22;12030;50.376;8.762;2024-03-07T13:13:10;10.20;99.90
23703;DHT22;12030;50.376;8.762;2024-03-07T13:15:37;10.40;99.90
23703;DHT22;12030;50.376;8.762;2024-03-07T13:18:03;10.50;99.90
23703;DHT22;12030;50.376;8.762;2024-03-07T13:20:30;10.50;99.90
23703;DHT22;12030;50.376;8.762;2024-03-07T13:22:56;10.60;99.90
23703;DHT22;12030;50.376;8.762;2024-03-07T13:25:24;10.50;99.90
23703;DHT22;12030;50.376;8.762;2024-03-07T13:28:00;10.40;99.90
23703;DHT22;12030;50.376;8.762;2024-03-07T13:30:26;10.40;99.90
23703;DHT22;12030;50.376;8.762;2024-03-07T13:32:56;10.40;99.90
23703;DHT22;12030;50.376;8.762;2024-03-07T13:35:26;10.40;99.90
23703;DHT22;12030;50.376;8.762;2024-03-07T13:37:53;10.50;99.90
23703;DHT22;12030;50.376;8.762;2024-03-07T13:40:26;10.40;99.90
23703;DHT22;12030;50.376;8.762;2024-03-07T13:42:56;10.50;99.90
23703;DHT22;12030;50.376;8.762;2024-03-07T13:45:25;10.50;99.90
23703;DHT22;12030;50.376;8.762;2024-03-07T13:47:54;10.50;99.90
23703;DHT22;12030;50.376;8.762;2024-03-07T13:50:24;10.40;99.90
23703;DHT22;12030;50.376;8.762;2024-03-07T13:52:51;10.30;99.90
23703;DHT22;12030;50.376;8.762;2024-03-07T13:55:55;10.30;99.90
23703;DHT22;12030;50.376;8.762;2024-03-07T14:12:46;10.30;99.90
23703;DHT22;12030;50.376;8.762;2024-03-07T14:27:18;10.30;99.90
23703;DHT22;12030;50.376;8.762;2024-03-07T14:29:50;10.30;99.90
23703;DHT22;12030;50.376;8.762;2024-03-07T14:32:17;10.30;99.90
23703;DHT22;12030;50.376;8.762;2024-03-07T14:37:28;10.30;99.90
23703;DHT22;12030;50.376;8.762;2024-03-07T14:40:10;10.30;99.90
23703;DHT22;12030;50.376;8.762;2024-03-07T14:42:44;10.30;99.90
23703;DHT22;12030;50.376;8.762;2024-03-07T14:45:13;10.30;99.90
23703;DHT22;12030;50.376;8.762;2024-03-07T14:47:41;10.30;99.90
23703;DHT22;12030;50.376;8.762;2024-03-07T14:50:08;10.30;99.90
23703;DHT22;12030;50.376;8.762;2024-03-07T14:52:36;10.30;99.90
23703;DHT22;12030;50.376;8.762;2024-03-07T14:55:09;10.30;99.90
23703;DHT22;12030;50.376;8.762;2024-03-07T14:57:38;10.30;99.90
23703;DHT22;12030;50.376;8.762;2024-03-07T15:00:05;10.20;99.90
23703;DHT22;12030;50.376;8.762;2024-03-07T15:02:39;10.20;99.90
23703;DHT22;12030;50.376;8.762;2024-03-07T15:05:05;10.10;99.90
23703;DHT22;12030;50.376;8.762;2024-03-07T15:07:31;10.10;99.90
23703;DHT22;12030;50.376;8.762;2024-03-07T15:09:56;10.10;99.90
23703;DHT22;12030;50.376;8.762;2024-03-07T15:12:23;10.10;99.90
23703;DHT22;12030;50.376;8.762;2024-03-07T15:14:49;10.10;99.90
23703;DHT22;12030;50.376;8.762;2024-03-07T15:17:14;10.10;99.90
23703;DHT22;12030;50.376;8.762;2024-03-07T15:19:40;10.10;99.90
23703;DHT22;12030;50.376;8.762;2024-03-07T15:22:05;10.00;99.90
23703;DHT22;12030;50.376;8.762;2024-03-07T15:24:31;10.00;99.90
23703;DHT22;12030;50.376;8.762;2024-03-07T15:26:56;9.90;99.90
23703;DHT22;12030;50.376;8.762;2024-03-07T15:29:23;10.00;99.90
23703;DHT22;12030;50.376;8.762;2024-03-07T15:31:49;9.90;99.90
23703;DHT22;12030;50.376;8.762;2024-03-07T15:34:15;9.90;99.90
23703;DHT22;12030;50.376;8.762;2024-03-07T15:36:42;9.80;99.90
23703;DHT22;12030;50.376;8.762;2024-03-07T15:39:07;9.80;99.90
23703;DHT22;12030;50.376;8.762;2024-03-07T15:41:45;9.80;99.90
23703;DHT22;12030;50.376;8.762;2024-03-07T15:44:11;9.80;99.90
23703;DHT22;12030;50.376;8.762;2024-03-07T15:46:37;9.80;99.90
23703;DHT22;12030;50.376;8.762;2024-03-07T15:49:03;9.80;99.90
23703;DHT22;12030;50.376;8.762;2024-03-07T15:51:29;9.80;99.90
23703;DHT22;12030;50.376;8.762;2024-03-07T15:53:54;9.80;99.90
23703;DHT22;12030;50.376;8.762;2024-03-07T15:56:20;9.80;99.90
23703;DHT22;12030;50.376;8.762;2024-03-07T15:58:45;9.70;99.90
23703;DHT22;12030;50.376;8.762;2024-03-07T16:01:11;9.70;99.90
23703;DHT22;12030;50.376;8.762;2024-03-07T16:03:36;9.70;99.90
23703;DHT22;12030;50.376;8.762;2024-03-07T16:06:02;9.60;99.90
23703;DHT22;12030;50.376;8.762;2024-03-07T16:08:30;9.60;99.90
23703;DHT22;12030;50.376;8.762;2024-03-07T16:10:56;9.50;99.90
23703;DHT22;12030;50.376;8.762;2024-03-07T16:13:22;9.40;99.90
23703;DHT22;12030;50.376;8.762;2024-03-07T16:15:49;9.30;99.90